MAYO2: W. D. Mayo Lock And Dam (L&D 14)

Data processed at Thu Jan 23 2020 23:35


All information presented herein is the property of the government of the United States of America and may be revised or deleted at any time without prior notice.
Dissemination of this information without the expressed written consent of the Public Affairs Office, Tulsa District U.S. Army Corps of Engineers is strictly prohibited.
These data are gathered electronically and, as presented, have not undergone any form of quality control. These data are not guaranteed to be valid or correct.
Go to home page.
Go to station list.
Go to home page.

Upstream stations:

Downstream station:
Previous Day
Next Day
Current Day
    
SHEF ID:       MAYO2     W.D. Mayo LD14
STATION TYPE:  NAVIGATION LOCK
Navigation Pool:  Bottom =   411.00, Top =   413.00

               PRECIP ELEVATION   STORAGE   TW-ELEV LOCK-ELEV    INFLOW   RELEASE  AIR-TEMP  WIND-DIRWIND-SPEED REL-HUMID SOLAR-RAD   VOLTAGE  BAT-LOAD
                   in        ft     ac-ft        ft        ft       cfs       cfs         F       deg       mph         %      W/m2      volt      volt
              Ccp-Rev   Ccp-Rev   Ccp-Rev   Ccp-Rev   Ccp-Rev  Rev-Regi  Rev-Regi   Ccp-Rev   Ccp-Rev   Ccp-Rev   Ccp-Rev   Ccp-Rev   Ccp-Rev   Ccp-Rev
(US/Central)
01/23 00:00      0.00    411.81     13889    403.97      ----    106642    106328     35.78     60.00      3.90    100.03      0.00     12.32     11.67
01/23 01:00      0.02    411.93     14068    403.77      ----    106970    106517     36.01     73.40      3.40     99.70      0.00     12.32     11.66
01/23 02:00      0.01    411.97     14127    403.72      ----    106933    106768     36.12     89.40      3.70    100.03      0.00     12.31     11.66
01/23 03:00      0.02    412.03     14217    403.78      ----    107046    105098     36.21     58.00      3.70    100.05      0.00     12.31     11.66
01/23 04:00      0.01    412.07     14278    403.76      ----    106380    105250     36.14     64.50      3.00    100.04      0.00     12.31     11.65
01/23 05:00      0.01    412.15     14398    403.71      ----    106144    105430     36.09     66.50      3.40    100.04      0.00     12.30     11.65
01/23 06:00      0.01    412.14     14383    403.76      ----    106075    105535     36.07     70.20      2.50    100.04      0.00     12.30     11.66
01/23 07:00      0.00    412.18     14444    403.76      ----    106291    105580     36.14     50.40      3.90    100.04      0.00     12.30     11.65
01/23 08:00      0.00    412.19     14459    403.83      ----    106248    105655     36.16     51.80      2.40    100.04      0.00     12.29     11.65
01/23 09:00      0.00    412.26     14565    403.85      ----    106178    105775     36.34     57.10      1.70    100.04      6.40     12.33     11.66
01/23 10:00      0.00    412.30     14626    403.77      ----    106325    105940     36.77     46.20      1.70    100.04     37.50     12.34     11.66
01/23 11:00      0.00    412.25     14550    403.83      ----    106404    105925     37.36    101.00      0.60     99.61     38.40     12.37     11.66
01/23 12:00      0.00    412.31     14641    403.93      ----    105330    105940     37.94    216.40      1.60     99.82     98.00     12.47     11.76
01/23 13:00      0.00    412.32     14657    403.93      ----    105193    106045     39.24    248.80      3.40     98.93     99.80     12.47     11.82
01/23 14:00      0.00    412.10     14323    404.35      ----    105567    105730     40.84    270.20      3.50     98.16    105.20     12.54     11.84
01/23 15:00      0.00    412.13     14368    404.64      ----    105776    105445     42.75    272.80      4.40     94.90     98.30     12.49     11.88
01/23 16:00      0.00    412.20     14474    404.63      ----    105984    105595     44.10    276.50      2.40     92.05     99.50     12.58     11.85
01/23 17:00      0.00    412.32     14657    404.94      ----    107014    105880     45.99    235.00      2.30     85.90    121.40     12.46     12.04
01/23 18:00      0.00    412.38     14749    405.04      ----    107001    106150     44.15    155.10      1.10     93.52      5.80     12.39     11.78
01/23 19:00      0.00    412.41     14795    405.10      ----    106558    106285     42.10    134.20      1.30     97.99      0.00     12.35     11.75
01/23 20:00      0.00    412.31     14641    405.19      ----    105907    106300     39.51     65.20      0.10    100.03      0.00     12.31     11.71
01/23 21:00      0.00    412.25     14550    405.31      ----    105385    106150     37.92    314.60      1.60    100.04      0.00     12.29     11.68
01/23 22:00      0.01    412.29     14611    405.41      ----    105018    105940     40.78    298.20      4.90     97.61      0.00     12.27     11.66
01/23 23:00      0.00    412.28     14596    405.41      ----      ----      ----     41.79    273.30      3.00     93.17      0.00     12.26     11.65